createdAt,value
2022-09-09T00:02:13.335Z,99590.91
2022-09-09T00:04:40.956Z,99579.47
2022-09-09T00:07:22.105Z,99579.47
2022-09-09T00:10:19.191Z,99570.81
2022-09-09T00:12:52.511Z,99569.88
2022-09-09T00:15:21.811Z,99580.25
2022-09-09T00:17:50.895Z,99600.75
2022-09-09T00:20:22.142Z,99602.91
2022-09-09T00:22:52.421Z,99598.94
2022-09-09T00:25:25.061Z,99585.44
2022-09-09T00:27:52.558Z,99581.00
2022-09-09T00:30:23.362Z,99585.69
2022-09-09T00:32:51.895Z,99589.91
2022-09-09T00:35:23.338Z,99592.03
2022-09-09T00:37:51.982Z,99587.41
2022-09-09T00:40:23.367Z,99592.22
2022-09-09T00:42:52.601Z,99594.19
2022-09-09T00:45:28.066Z,99592.06
2022-09-09T00:47:55.447Z,99588.81
2022-09-09T00:50:26.187Z,99582.03
2022-09-09T00:53:22.928Z,99582.87
2022-09-09T00:55:50.570Z,99587.06
2022-09-09T00:58:18.174Z,99589.34
2022-09-09T01:00:50.138Z,99598.06
2022-09-09T01:03:35.815Z,99604.59
2022-09-09T01:06:06.403Z,99602.31
2022-09-09T01:08:53.105Z,99601.81
2022-09-09T01:11:39.500Z,99603.88
2022-09-09T01:14:41.151Z,99610.41
2022-09-09T01:17:10.941Z,99611.31
2022-09-09T01:19:45.455Z,99611.97
2022-09-09T01:22:20.461Z,99618.47
2022-09-09T01:25:06.961Z,99616.53
2022-09-09T01:27:35.762Z,99629.25
2022-09-09T01:30:05.679Z,99626.81
2022-09-09T01:32:43.730Z,99622.00
2022-09-09T01:35:31.825Z,99628.06
2022-09-09T01:38:00.446Z,99632.78
2022-09-09T01:40:28.105Z,99630.13
2022-09-09T01:42:56.125Z,99639.28
2022-09-09T01:45:23.386Z,99635.94
2022-09-09T01:47:51.539Z,99637.16
2022-09-09T01:50:19.466Z,99643.25
2022-09-09T01:52:47.401Z,99648.59
2022-09-09T01:55:15.942Z,99643.91
2022-09-09T01:58:00.566Z,99640.69
2022-09-09T02:00:28.222Z,99635.56
2022-09-09T02:02:58.675Z,99635.75
2022-09-09T02:05:42.650Z,99630.81
2022-09-09T02:08:12.621Z,99634.59
2022-09-09T02:10:43.412Z,99624.22
2022-09-09T02:13:12.676Z,99631.03
2022-09-09T02:15:40.264Z,99633.44
2022-09-09T02:18:09.016Z,99634.94
2022-09-09T02:20:38.232Z,99641.13
2022-09-09T02:23:06.757Z,99634.06
2022-09-09T02:25:34.382Z,99638.78
2022-09-09T02:28:04.034Z,99631.69
2022-09-09T02:30:31.578Z,99622.84
2022-09-09T02:32:59.615Z,99624.09
2022-09-09T02:35:27.532Z,99614.91
2022-09-09T02:37:56.154Z,99612.47
2022-09-09T02:40:23.987Z,99617.63
2022-09-09T02:42:52.635Z,99617.97
2022-09-09T02:45:21.213Z,99614.47
2022-09-09T02:48:04.084Z,99617.31
2022-09-09T02:50:35.806Z,99616.59
2022-09-09T02:53:03.220Z,99618.88
2022-09-09T02:55:43.328Z,99626.78
2022-09-09T02:58:12.853Z,99631.28
2022-09-09T03:00:41.218Z,99631.03
2022-09-09T03:03:09.804Z,99628.75
2022-09-09T03:05:37.662Z,99641.28
2022-09-09T03:08:06.498Z,99638.78
2022-09-09T03:10:33.995Z,99632.72
2022-09-09T03:13:01.770Z,99634.22
2022-09-09T03:15:32.215Z,99641.41
2022-09-09T03:17:59.827Z,99635.87
2022-09-09T03:20:27.985Z,99643.22
2022-09-09T03:22:55.812Z,99645.25
2022-09-09T03:25:26.782Z,99650.47
2022-09-09T03:27:55.924Z,99641.13
2022-09-09T03:30:24.707Z,99635.87
2022-09-09T03:32:52.721Z,99638.34
2022-09-09T03:35:20.400Z,99642.06
2022-09-09T03:37:47.710Z,99647.81
2022-09-09T03:40:17.099Z,99644.09
2022-09-09T03:42:45.032Z,99646.03
2022-09-09T03:45:12.444Z,99649.19
2022-09-09T03:47:39.859Z,99648.28
2022-09-09T03:50:09.560Z,99654.72
2022-09-09T03:52:38.039Z,99659.38
2022-09-09T03:55:08.933Z,99657.59
2022-09-09T03:57:37.558Z,99661.22
2022-09-09T04:00:06.769Z,99658.69
2022-09-09T04:02:44.683Z,99669.00
2022-09-09T04:05:12.695Z,99665.13
2022-09-09T04:07:41.171Z,99668.66
2022-09-09T04:10:09.483Z,99662.53
2022-09-09T04:12:38.601Z,99655.38
2022-09-09T04:15:06.615Z,99655.72
2022-09-09T04:17:34.274Z,99665.59
2022-09-09T04:20:02.518Z,99664.38
2022-09-09T04:22:29.745Z,99657.53
2022-09-09T04:24:57.142Z,99658.34
2022-09-09T04:27:26.816Z,99660.50
2022-09-09T04:29:54.455Z,99655.00
2022-09-09T04:32:22.313Z,99658.34
2022-09-09T04:34:49.984Z,99655.72
2022-09-09T04:37:17.794Z,99662.47
2022-09-09T04:39:46.226Z,99657.34
2022-09-09T04:42:13.994Z,99646.62
2022-09-09T04:44:43.291Z,99645.25
2022-09-09T04:47:11.034Z,99650.87
2022-09-09T04:49:39.491Z,99650.22
2022-09-09T04:52:06.928Z,99645.66
2022-09-09T04:54:34.440Z,99653.88
2022-09-09T04:57:02.462Z,99649.69
2022-09-09T04:59:29.974Z,99649.59
2022-09-09T05:01:57.793Z,99657.75
2022-09-09T05:04:25.340Z,99657.56
2022-09-09T05:06:52.565Z,99667.22
2022-09-09T05:09:19.830Z,99666.31
2022-09-09T05:11:47.614Z,99670.34
2022-09-09T05:14:15.765Z,99670.84
2022-09-09T05:16:45.346Z,99665.47
2022-09-09T05:19:13.447Z,99671.78
2022-09-09T05:21:42.638Z,99667.09
2022-09-09T05:24:10.145Z,99661.69
2022-09-09T05:26:37.908Z,99659.84
2022-09-09T05:29:05.862Z,99666.59
2022-09-09T05:31:33.909Z,99669.12
2022-09-09T05:34:01.912Z,99679.88
2022-09-09T05:36:29.219Z,99679.00
2022-09-09T05:38:56.699Z,99683.13
2022-09-09T05:41:24.704Z,99682.53
2022-09-09T05:43:53.473Z,99675.50
2022-09-09T05:46:22.436Z,99681.41
2022-09-09T05:48:53.129Z,99682.47
2022-09-09T05:51:25.131Z,99679.13
2022-09-09T05:53:53.085Z,99681.63
2022-09-09T05:56:22.809Z,99673.75
2022-09-09T05:58:50.323Z,99682.16
2022-09-09T06:01:20.034Z,99678.72
2022-09-09T06:03:48.266Z,99676.91
2022-09-09T06:06:21.780Z,99679.47
2022-09-09T06:08:52.033Z,99679.97
2022-09-09T06:11:23.482Z,99678.84
2022-09-09T06:13:55.576Z,99679.63
2022-09-09T06:16:39.843Z,99678.12
2022-09-09T06:19:07.923Z,99678.22
2022-09-09T06:21:37.082Z,99672.09
2022-09-09T06:24:05.184Z,99676.94
2022-09-09T06:26:33.792Z,99675.03
2022-09-09T06:29:01.552Z,99679.69
2022-09-09T06:31:31.321Z,99675.34
2022-09-09T06:34:00.039Z,99682.28
2022-09-09T06:36:31.147Z,99682.28
2022-09-09T06:38:59.680Z,99687.94
2022-09-09T06:41:28.135Z,99675.91
2022-09-09T06:43:59.037Z,99679.44
2022-09-09T06:46:33.418Z,99686.69
2022-09-09T06:49:00.923Z,99679.88
2022-09-09T06:51:29.983Z,99686.09
2022-09-09T06:53:58.462Z,99691.19
2022-09-09T06:56:29.028Z,99694.16
2022-09-09T06:58:57.514Z,99693.47
2022-09-09T07:01:25.882Z,99695.87
2022-09-09T07:03:54.104Z,99694.03
2022-09-09T07:06:32.223Z,99696.44
2022-09-09T07:09:00.626Z,99701.09
2022-09-09T07:11:35.610Z,99703.06
2022-09-09T07:14:03.455Z,99699.25
2022-09-09T07:16:32.809Z,99704.37
2022-09-09T07:19:01.433Z,99697.69
2022-09-09T07:21:29.522Z,99711.31
2022-09-09T07:23:57.249Z,99702.53
2022-09-09T07:26:26.732Z,99700.09
2022-09-09T07:28:54.799Z,99702.09
2022-09-09T07:31:33.656Z,99697.25
2022-09-09T07:34:01.718Z,99707.62
2022-09-09T07:36:33.512Z,99704.66
2022-09-09T07:39:02.823Z,99704.56
2022-09-09T07:41:37.573Z,99698.00
2022-09-09T07:44:06.401Z,99706.25
2022-09-09T07:46:35.106Z,99698.59
2022-09-09T07:49:03.420Z,99708.47
2022-09-09T07:51:42.877Z,99705.53
2022-09-09T07:54:12.300Z,99704.66
2022-09-09T07:56:40.525Z,99704.16
2022-09-09T07:59:08.251Z,99711.59
2022-09-09T08:01:40.007Z,99701.53
2022-09-09T08:04:09.577Z,99706.38
2022-09-09T08:06:38.225Z,99704.16
2022-09-09T08:09:06.567Z,99698.50
2022-09-09T08:11:38.609Z,99706.94
2022-09-09T08:14:08.583Z,99696.00
2022-09-09T08:16:38.184Z,99698.28
2022-09-09T08:19:08.324Z,99701.00
2022-09-09T08:21:37.704Z,99691.41
2022-09-09T08:24:08.265Z,99693.47
2022-09-09T08:26:36.885Z,99694.13
2022-09-09T08:29:05.305Z,99692.50
2022-09-09T08:31:32.832Z,99692.38
2022-09-09T08:34:01.233Z,99694.53
2022-09-09T08:36:29.783Z,99695.16
2022-09-09T08:38:58.006Z,99696.28
2022-09-09T08:41:26.691Z,99696.63
2022-09-09T08:44:00.072Z,99693.06
2022-09-09T08:46:49.238Z,99702.34
2022-09-09T08:49:19.712Z,99698.63
2022-09-09T08:51:47.414Z,99705.75
2022-09-09T08:54:21.944Z,99701.69
2022-09-09T08:57:02.658Z,99706.28
2022-09-09T08:59:30.024Z,99699.00
2022-09-09T09:02:02.658Z,99694.94
2022-09-09T09:04:45.510Z,99695.41
2022-09-09T09:07:19.110Z,99696.25
2022-09-09T09:10:03.114Z,99699.88
2022-09-09T09:12:32.200Z,99686.53
2022-09-09T09:15:00.112Z,99679.13
2022-09-09T09:17:28.709Z,99685.38
2022-09-09T09:19:56.126Z,99677.94
2022-09-09T09:22:26.278Z,99671.91
2022-09-09T09:24:58.140Z,99672.44
2022-09-09T09:27:26.049Z,99667.66
2022-09-09T09:30:20.360Z,99661.56
2022-09-09T09:32:42.798Z,99667.13
2022-09-09T09:35:11.253Z,99658.91
2022-09-09T09:40:26.579Z,99649.84
2022-09-09T09:42:55.188Z,99664.59
2022-09-09T09:45:25.708Z,99669.72
2022-09-09T09:48:04.167Z,99667.59
2022-09-09T09:50:34.375Z,99672.00
2022-09-09T09:53:06.199Z,99670.63
2022-09-09T09:55:34.617Z,99666.41
2022-09-09T10:00:52.190Z,99665.94
2022-09-09T10:03:32.859Z,99670.03
2022-09-09T10:06:01.662Z,99661.56
2022-09-09T10:08:29.314Z,99650.06
2022-09-09T10:10:56.903Z,99656.16
2022-09-09T10:13:27.336Z,99655.34
2022-09-09T10:16:24.122Z,99653.53
2022-09-09T10:18:57.152Z,99652.75
2022-09-09T10:21:44.159Z,99648.97
2022-09-09T10:24:14.606Z,99645.09
2022-09-09T10:26:56.558Z,99649.75
2022-09-09T10:29:26.876Z,99645.84
2022-09-09T10:31:54.589Z,99650.00
2022-09-09T10:34:31.056Z,99653.38
2022-09-09T10:36:59.459Z,99647.00
2022-09-09T10:39:39.126Z,99648.72
2022-09-09T10:42:17.800Z,99645.59
2022-09-09T10:44:51.539Z,99646.62
2022-09-09T10:47:33.816Z,99652.47
2022-09-09T10:50:13.613Z,99640.03
2022-09-09T10:52:43.631Z,99644.16
2022-09-09T10:55:11.739Z,99644.47
2022-09-09T10:57:42.255Z,99643.25
2022-09-09T11:00:23.396Z,99645.31
2022-09-09T11:03:01.603Z,99637.25
2022-09-09T11:05:35.159Z,99631.16
2022-09-09T11:08:04.299Z,99634.00
2022-09-09T11:10:38.013Z,99629.16
2022-09-09T11:13:05.883Z,99626.69
2022-09-09T11:15:36.752Z,99622.81
2022-09-09T11:18:05.271Z,99620.53
2022-09-09T11:20:33.523Z,99626.22
2022-09-09T11:23:11.833Z,99621.97
2022-09-09T11:25:59.742Z,99630.16
2022-09-09T11:28:45.978Z,99625.06
2022-09-09T11:31:29.597Z,99632.09
2022-09-09T11:34:09.454Z,99640.84
2022-09-09T11:36:43.273Z,99631.31
2022-09-09T11:39:25.594Z,99641.69
2022-09-09T11:41:53.667Z,99637.41
2022-09-09T11:44:26.073Z,99627.25
2022-09-09T11:47:02.503Z,99628.91
2022-09-09T11:49:32.438Z,99637.31
2022-09-09T11:52:00.102Z,99635.97
2022-09-09T11:54:34.001Z,99628.88
2022-09-09T11:57:02.270Z,99628.66
2022-09-09T11:59:31.141Z,99625.84
2022-09-09T12:02:12.090Z,99624.50
2022-09-09T12:04:45.851Z,99624.91
2022-09-09T12:07:28.904Z,99626.28
2022-09-09T12:10:06.353Z,99630.66
2022-09-09T12:12:34.911Z,99646.12
2022-09-09T12:15:08.671Z,99640.69
2022-09-09T12:17:43.307Z,99634.06
2022-09-09T12:20:16.983Z,99643.72
2022-09-09T12:22:57.956Z,99630.59
2022-09-09T12:25:44.366Z,99627.00
2022-09-09T12:28:31.008Z,99629.69
2022-09-09T12:31:19.134Z,99614.28
2022-09-09T12:33:49.117Z,99603.75
2022-09-09T12:36:17.757Z,99596.37
2022-09-09T12:38:45.077Z,99593.19
2022-09-09T12:41:22.713Z,99592.84
2022-09-09T12:43:51.707Z,99590.31
2022-09-09T12:46:39.493Z,99583.16
2022-09-09T12:49:07.553Z,99581.09
2022-09-09T12:51:34.906Z,99598.19
2022-09-09T12:54:02.293Z,99583.97
2022-09-09T12:56:31.429Z,99583.59
2022-09-09T12:58:59.302Z,99582.44
2022-09-09T13:01:27.925Z,99573.72
2022-09-09T13:04:17.325Z,99564.44
2022-09-09T13:06:45.472Z,99563.94
2022-09-09T13:09:13.412Z,99555.69
2022-09-09T13:11:43.198Z,99555.62
2022-09-09T13:14:21.365Z,99553.91
2022-09-09T13:16:59.271Z,99546.41
2022-09-09T13:19:28.926Z,99551.44
2022-09-09T13:21:57.117Z,99547.09
2022-09-09T13:24:29.519Z,99549.13
2022-09-09T13:27:02.962Z,99554.38
2022-09-09T13:29:30.932Z,99560.16
2022-09-09T13:32:22.170Z,99558.41
2022-09-09T13:34:53.966Z,99542.19
2022-09-09T13:37:28.689Z,99536.56
2022-09-09T13:39:56.167Z,99546.53
2022-09-09T13:42:27.757Z,99534.09
2022-09-09T13:44:55.389Z,99533.19
2022-09-09T13:47:24.364Z,99533.31
2022-09-09T13:49:52.010Z,99538.13
2022-09-09T13:52:19.975Z,99524.22
2022-09-09T13:54:50.990Z,99527.03
2022-09-09T13:57:20.598Z,99525.84
2022-09-09T14:00:04.104Z,99516.84
2022-09-09T14:02:33.015Z,99508.34
2022-09-09T14:05:00.259Z,99500.50
2022-09-09T14:07:27.508Z,99501.38
2022-09-09T14:09:55.063Z,99497.69
2022-09-09T14:12:22.583Z,99499.25
2022-09-09T14:14:50.757Z,99499.50
2022-09-09T14:17:18.493Z,99492.91
2022-09-09T14:19:47.012Z,99502.22
2022-09-09T14:22:14.265Z,99501.81
2022-09-09T14:24:41.983Z,99510.66
2022-09-09T14:27:09.767Z,99506.25
2022-09-09T14:29:38.291Z,99503.53
2022-09-09T14:32:09.402Z,99503.09
2022-09-09T14:34:39.334Z,99491.50
2022-09-09T14:37:07.397Z,99493.94
2022-09-09T14:39:34.678Z,99492.66
2022-09-09T14:42:02.129Z,99488.13
2022-09-09T14:44:30.157Z,99483.28
2022-09-09T14:46:57.486Z,99486.00
2022-09-09T14:49:24.737Z,99494.09
2022-09-09T14:51:52.244Z,99492.03
2022-09-09T14:54:19.831Z,99489.56
2022-09-09T14:56:48.546Z,99494.06
2022-09-09T14:59:16.066Z,99500.00
2022-09-09T15:01:43.656Z,99487.62
2022-09-09T15:04:12.646Z,99481.50
2022-09-09T15:06:41.081Z,99486.12
2022-09-09T15:09:08.471Z,99494.88
2022-09-09T15:11:39.998Z,99488.13
2022-09-09T15:14:08.646Z,99491.94
2022-09-09T15:16:36.099Z,99485.22
2022-09-09T15:19:03.741Z,99494.88
2022-09-09T15:21:35.817Z,99491.31
2022-09-09T15:24:03.766Z,99487.59
2022-09-09T15:26:31.456Z,99484.88
2022-09-09T15:29:00.228Z,99491.63
2022-09-09T15:31:29.517Z,99493.44
2022-09-09T15:34:01.728Z,99488.75
2022-09-09T15:36:30.311Z,99493.47
2022-09-09T15:38:57.927Z,99497.06
2022-09-09T15:41:25.298Z,99495.06
2022-09-09T15:43:53.595Z,99494.06
2022-09-09T15:46:38.468Z,99494.53
2022-09-09T15:49:07.802Z,99488.72
2022-09-09T15:51:42.603Z,99489.81
2022-09-09T15:54:13.305Z,99491.63
2022-09-09T15:56:41.537Z,99487.47
2022-09-09T15:59:09.151Z,99486.06
2022-09-09T16:01:36.672Z,99487.12
2022-09-09T16:04:05.169Z,99492.19
2022-09-09T16:06:34.382Z,99494.06
2022-09-09T16:09:03.201Z,99507.72
2022-09-09T16:11:32.225Z,99506.22
2022-09-09T16:14:00.051Z,99517.81
2022-09-09T16:16:28.802Z,99515.56
2022-09-09T16:18:57.820Z,99517.97
2022-09-09T16:21:30.268Z,99513.00
2022-09-09T16:24:00.343Z,99516.41
2022-09-09T16:26:28.787Z,99511.84
2022-09-09T16:28:56.367Z,99520.06
2022-09-09T16:31:24.769Z,99513.53
2022-09-09T16:33:52.498Z,99506.69
2022-09-09T16:36:26.981Z,99509.12
2022-09-09T16:38:56.153Z,99514.63
2022-09-09T16:41:23.350Z,99510.47
2022-09-09T16:43:57.779Z,99507.72
2022-09-09T16:46:26.608Z,99512.25
2022-09-09T16:48:55.828Z,99512.94
2022-09-09T16:51:27.252Z,99523.78
2022-09-09T16:53:55.015Z,99523.34
2022-09-09T16:56:23.714Z,99527.31
2022-09-09T16:58:51.801Z,99537.25
2022-09-09T17:01:19.515Z,99529.09
2022-09-09T17:03:47.064Z,99525.34
2022-09-09T17:06:15.229Z,99530.78
2022-09-09T17:08:42.934Z,99526.41
2022-09-09T17:11:16.806Z,99520.66
2022-09-09T17:13:44.683Z,99528.84
2022-09-09T17:16:12.720Z,99529.00
2022-09-09T17:18:40.212Z,99530.09
2022-09-09T17:21:09.503Z,99532.62
2022-09-09T17:23:39.162Z,99531.62
2022-09-09T17:26:08.641Z,99530.25
2022-09-09T17:28:39.737Z,99535.34
2022-09-09T17:31:07.932Z,99533.12
2022-09-09T17:33:36.565Z,99527.22
2022-09-09T17:36:07.724Z,99536.34
2022-09-09T17:38:36.365Z,99532.81
2022-09-09T17:41:07.072Z,99541.44
2022-09-09T17:43:34.776Z,99541.19
2022-09-09T17:46:13.866Z,99545.94
2022-09-09T17:48:41.619Z,99541.31
2022-09-09T17:51:10.095Z,99540.25
2022-09-09T17:53:38.874Z,99543.63
2022-09-09T17:56:07.421Z,99552.34
2022-09-09T17:58:34.846Z,99534.47
2022-09-09T18:01:10.254Z,99527.06
2022-09-09T18:03:38.173Z,99529.56
2022-09-09T18:06:06.254Z,99530.25
2022-09-09T18:08:36.908Z,99546.59
2022-09-09T18:11:05.728Z,99558.56
2022-09-09T18:13:33.152Z,99561.19
2022-09-09T18:16:01.164Z,99562.34
2022-09-09T18:18:29.777Z,99558.37
2022-09-09T18:20:58.406Z,99553.53
2022-09-09T18:23:25.736Z,99554.47
2022-09-09T18:25:53.412Z,99548.75
2022-09-09T18:28:24.518Z,99553.84
2022-09-09T18:30:52.819Z,99561.13
2022-09-09T18:33:20.659Z,99556.38
2022-09-09T18:35:50.981Z,99563.41
2022-09-09T18:38:19.093Z,99568.56
2022-09-09T18:40:46.577Z,99569.69
2022-09-09T18:43:15.703Z,99566.53
2022-09-09T18:45:44.485Z,99563.53
2022-09-09T18:48:15.336Z,99569.50
2022-09-09T18:50:43.417Z,99565.38
2022-09-09T18:53:10.875Z,99569.59
2022-09-09T18:55:38.154Z,99570.12
2022-09-09T18:58:05.655Z,99564.53
2022-09-09T19:00:33.435Z,99569.56
2022-09-09T19:03:01.772Z,99572.94
2022-09-09T19:05:31.140Z,99570.44
2022-09-09T19:07:59.788Z,99564.41
2022-09-09T19:10:27.206Z,99558.97
2022-09-09T19:12:55.729Z,99562.34
2022-09-09T19:15:23.264Z,99562.25
2022-09-09T19:17:51.969Z,99558.69
2022-09-09T19:20:23.634Z,99558.53
2022-09-09T19:22:50.815Z,99553.97
2022-09-09T19:25:18.021Z,99562.53
2022-09-09T19:27:45.977Z,99562.44
2022-09-09T19:30:13.604Z,99554.06
2022-09-09T19:32:53.125Z,99559.44
2022-09-09T19:35:21.529Z,99553.31
2022-09-09T19:37:49.030Z,99562.47
2022-09-09T19:40:17.547Z,99550.06
2022-09-09T19:42:45.558Z,99551.53
2022-09-09T19:45:12.784Z,99556.16
2022-09-09T19:47:40.644Z,99559.53
2022-09-09T19:50:08.596Z,99560.38
2022-09-09T19:52:35.790Z,99562.22
2022-09-09T19:55:03.165Z,99561.22
2022-09-09T19:57:30.863Z,99565.31
2022-09-09T20:00:13.301Z,99560.59
2022-09-09T20:03:19.292Z,99565.75
2022-09-09T20:05:51.135Z,99567.63
2022-09-09T20:08:43.948Z,99568.91
2022-09-09T20:11:25.062Z,99575.47
2022-09-09T20:14:15.922Z,99572.72
2022-09-09T20:16:55.110Z,99580.94
2022-09-09T20:19:46.965Z,99581.03
2022-09-09T20:22:14.666Z,99587.75
2022-09-09T20:25:18.868Z,99583.31
2022-09-09T20:28:21.353Z,99589.81
2022-09-09T20:31:26.732Z,99590.22
2022-09-09T20:34:06.604Z,99587.22
2022-09-09T20:37:13.825Z,99583.59
2022-09-09T20:39:53.773Z,99587.53
2022-09-09T20:42:55.933Z,99584.00
2022-09-09T20:45:24.237Z,99576.06
2022-09-09T20:48:27.417Z,99568.28
2022-09-09T20:51:13.599Z,99563.78
2022-09-09T20:54:06.150Z,99554.13
2022-09-09T20:56:45.732Z,99562.94
2022-09-09T20:59:54.826Z,99554.59
2022-09-09T21:02:50.389Z,99558.56
2022-09-09T21:05:29.149Z,99555.03
2022-09-09T21:08:19.896Z,99559.47
2022-09-09T21:11:07.351Z,99566.22
2022-09-09T21:14:05.235Z,99576.22
2022-09-09T21:16:50.462Z,99575.44
2022-09-09T21:19:50.945Z,99584.06
2022-09-09T21:22:30.321Z,99575.56
2022-09-09T21:25:20.954Z,99568.91
2022-09-09T21:28:05.784Z,99570.69
2022-09-09T21:30:40.581Z,99566.81
2022-09-09T21:33:10.763Z,99560.31
2022-09-09T21:35:39.527Z,99559.31
2022-09-09T21:40:36.840Z,99564.97
2022-09-09T21:43:05.843Z,99563.94
2022-09-09T21:45:34.953Z,99550.47
2022-09-09T21:48:02.281Z,99556.44
2022-09-09T21:50:29.844Z,99564.69
2022-09-09T21:52:57.145Z,99560.50
2022-09-09T21:55:24.527Z,99557.41
2022-09-09T21:57:52.036Z,99551.84
2022-09-09T22:00:19.387Z,99563.34
2022-09-09T22:02:49.398Z,99565.47
2022-09-09T22:05:16.618Z,99563.22
2022-09-09T22:07:43.885Z,99567.88
2022-09-09T22:10:12.961Z,99569.66
2022-09-09T22:12:41.721Z,99566.47
2022-09-09T22:15:09.137Z,99559.91
2022-09-09T22:17:36.593Z,99563.44
2022-09-09T22:20:04.643Z,99560.41
2022-09-09T22:22:31.951Z,99555.22
2022-09-09T22:24:59.504Z,99547.22
2022-09-09T22:27:26.882Z,99551.22
2022-09-09T22:29:54.089Z,99547.28
2022-09-09T22:32:22.319Z,99547.94
2022-09-09T22:34:51.205Z,99551.22
2022-09-09T22:37:19.413Z,99554.62
2022-09-09T22:39:47.102Z,99559.69
2022-09-09T22:42:15.115Z,99553.91
2022-09-09T22:44:42.343Z,99548.47
2022-09-09T22:47:09.802Z,99544.06
2022-09-09T22:49:37.445Z,99552.13
2022-09-09T22:52:04.784Z,99542.53
2022-09-09T22:54:32.414Z,99551.03
2022-09-09T22:56:59.829Z,99548.34
2022-09-09T22:59:27.958Z,99541.31
2022-09-09T23:01:57.051Z,99543.09
2022-09-09T23:04:25.273Z,99542.16
2022-09-09T23:06:52.429Z,99542.84
2022-09-09T23:09:19.965Z,99546.16
2022-09-09T23:11:47.685Z,99550.19
2022-09-09T23:14:15.057Z,99541.75
2022-09-09T23:16:46.596Z,99550.31
2022-09-09T23:19:15.987Z,99548.00
2022-09-09T23:21:44.243Z,99548.25
2022-09-09T23:24:12.373Z,99539.16
2022-09-09T23:26:39.952Z,99546.06
2022-09-09T23:29:07.442Z,99537.88
2022-09-09T23:31:37.507Z,99543.66
2022-09-09T23:34:04.878Z,99542.25
2022-09-09T23:36:32.395Z,99530.25
2022-09-09T23:39:00.357Z,99542.56
2022-09-09T23:41:28.176Z,99540.38
2022-09-09T23:43:55.861Z,99541.03
2022-09-09T23:46:25.223Z,99536.31
2022-09-09T23:48:52.492Z,99537.38
2022-09-09T23:51:23.154Z,99547.62
2022-09-09T23:53:51.224Z,99544.00
2022-09-09T23:56:19.155Z,99547.66
2022-09-09T23:58:47.897Z,99557.91
